Time;durP1;ratioP1;P1;durP2;ratioP2;P2;SDS_P1;SDS_P2;PMS_P1;PMS_P2;Temp;Humidity;BMP_temperature;BMP_pressure;BME280_temperature;BME280_humidity;BME280_pressure;Samples;Min_cycle;Max_cycle;Signal;HPM_P1;HPM_P2
2023/08/01 00:02:17;;;;;;;0.40;0.40;;;22.50;76.60;;;;;;5008641;28;20049;-75
2023/08/01 00:04:43;;;;;;;0.35;0.35;;;22.40;76.50;;;;;;5024847;28;20525;-75
2023/08/01 00:07:08;;;;;;;0.30;0.30;;;22.50;76.60;;;;;;5023792;28;20045;-75
2023/08/01 00:09:34;;;;;;;0.20;0.20;;;22.40;76.50;;;;;;5006658;28;20041;-75
2023/08/01 00:11:59;;;;;;;0.40;0.40;;;22.50;76.40;;;;;;5008420;28;20044;-75
2023/08/01 00:14:25;;;;;;;0.30;0.30;;;22.40;76.30;;;;;;5025890;28;20072;-75
2023/08/01 00:16:51;;;;;;;0.30;0.22;;;22.40;76.30;;;;;;5020323;28;20052;-75
2023/08/01 00:19:16;;;;;;;0.20;0.20;;;22.50;76.30;;;;;;5023388;28;20121;-75
2023/08/01 00:21:42;;;;;;;0.40;0.40;;;22.40;76.40;;;;;;5023870;28;20153;-75
2023/08/01 00:24:08;;;;;;;0.30;0.30;;;22.40;76.30;;;;;;5022762;28;20564;-76
2023/08/01 00:26:33;;;;;;;0.30;0.30;;;22.50;76.30;;;;;;5024726;28;20132;-75
2023/08/01 00:28:59;;;;;;;0.90;0.30;;;22.40;76.40;;;;;;5036933;28;20041;-76
2023/08/01 00:31:25;;;;;;;0.35;0.35;;;22.40;76.30;;;;;;5007104;28;20060;-75
2023/08/01 00:33:50;;;;;;;0.30;0.30;;;22.40;76.20;;;;;;5020421;28;20479;-75
2023/08/01 00:36:16;;;;;;;0.28;0.28;;;22.40;76.20;;;;;;5022658;28;20069;-76
2023/08/01 00:38:43;;;;;;;1.75;0.32;;;22.40;76.20;;;;;;5023194;28;20411;-75
2023/08/01 00:41:09;;;;;;;0.30;0.30;;;22.40;76.20;;;;;;5020811;28;20533;-76
2023/08/01 00:43:34;;;;;;;0.40;0.40;;;22.40;76.20;;;;;;5022045;28;20042;-76
2023/08/01 00:46:03;;;;;;;0.30;0.30;;;22.40;76.20;;;;;;5023475;28;20045;-75
2023/08/01 00:48:29;;;;;;;0.28;0.28;;;22.40;76.20;;;;;;5008817;28;20034;-76
2023/08/01 00:50:56;;;;;;;0.20;0.20;;;22.40;76.20;;;;;;5019964;28;20040;-76
2023/08/01 00:53:21;;;;;;;0.38;0.38;;;22.40;76.20;;;;;;5006648;28;20049;-75
2023/08/01 00:55:47;;;;;;;0.28;0.28;;;22.40;76.20;;;;;;5020231;28;20180;-75
2023/08/01 00:58:13;;;;;;;0.20;0.20;;;22.40;76.20;;;;;;5022227;28;20045;-76
2023/08/01 01:00:39;;;;;;;0.50;0.20;;;22.40;76.20;;;;;;5005453;28;20065;-75
2023/08/01 01:03:04;;;;;;;0.20;0.20;;;22.40;76.40;;;;;;5022576;28;21049;-75
2023/08/01 01:05:36;;;;;;;0.22;0.22;;;22.40;76.20;;;;;;5023757;28;20057;-75
2023/08/01 01:08:02;;;;;;;0.60;0.20;;;22.40;76.20;;;;;;5020625;28;20419;-75
2023/08/01 01:10:28;;;;;;;0.10;0.10;;;22.40;76.10;;;;;;5006682;28;20114;-75
2023/08/01 01:12:55;;;;;;;0.35;0.30;;;22.40;76.40;;;;;;5021744;28;20830;-75
2023/08/01 01:15:20;;;;;;;0.20;0.20;;;22.40;76.50;;;;;;5007181;28;20515;-75
2023/08/01 01:17:46;;;;;;;0.20;0.20;;;22.40;76.60;;;;;;5007932;28;20056;-75
2023/08/01 01:20:11;;;;;;;0.22;0.20;;;22.40;76.70;;;;;;5024179;28;20048;-75
2023/08/01 01:22:38;;;;;;;0.20;0.20;;;22.40;76.60;;;;;;5023651;28;20085;-75
2023/08/01 01:25:04;;;;;;;0.20;0.20;;;22.40;76.70;;;;;;5049777;28;20054;-75
2023/08/01 01:27:29;;;;;;;0.20;0.20;;;22.40;76.70;;;;;;5006658;28;20053;-75
2023/08/01 01:29:55;;;;;;;0.20;0.20;;;22.40;76.70;;;;;;5022782;28;20172;-75
2023/08/01 01:32:20;;;;;;;0.30;0.30;;;22.40;76.70;;;;;;5007266;28;20438;-75
2023/08/01 01:34:46;;;;;;;0.13;0.13;;;22.40;76.80;;;;;;5024345;28;20046;-75
2023/08/01 01:37:11;;;;;;;0.35;0.35;;;22.40;76.80;;;;;;5022842;28;20376;-75
2023/08/01 01:39:37;;;;;;;0.30;0.30;;;22.40;76.80;;;;;;5023957;28;20132;-75
2023/08/01 01:42:03;;;;;;;0.20;0.20;;;22.40;76.80;;;;;;5024210;28;20083;-75
2023/08/01 01:44:28;;;;;;;0.40;0.20;;;22.40;76.70;;;;;;5007993;28;20045;-75
2023/08/01 01:46:54;;;;;;;0.15;0.15;;;22.40;76.90;;;;;;5019751;28;20471;-75
2023/08/01 01:49:19;;;;;;;0.20;0.20;;;22.40;76.70;;;;;;5019734;28;20721;-75
2023/08/01 01:51:45;;;;;;;0.30;0.30;;;22.40;76.90;;;;;;5022004;28;20049;-75
2023/08/01 01:54:10;;;;;;;0.10;0.10;;;22.40;76.80;;;;;;5022797;28;20034;-75
2023/08/01 01:56:36;;;;;;;0.20;0.20;;;22.40;76.80;;;;;;5022195;28;20052;-75
2023/08/01 01:59:02;;;;;;;0.25;0.25;;;22.40;76.80;;;;;;5024628;28;20640;-75
2023/08/01 02:01:27;;;;;;;0.13;0.13;;;22.40;77.50;;;;;;5020197;28;20054;-75
2023/08/01 02:03:53;;;;;;;0.30;0.30;;;22.40;76.70;;;;;;5021746;28;20109;-75
2023/08/01 02:06:18;;;;;;;0.30;0.30;;;22.40;76.90;;;;;;5021813;28;20037;-75
2023/08/01 02:08:45;;;;;;;1.27;0.20;;;22.40;76.60;;;;;;5023063;28;20191;-75
2023/08/01 02:11:10;;;;;;;0.20;0.20;;;22.40;76.90;;;;;;5025420;28;20131;-75
2023/08/01 02:13:36;;;;;;;0.10;0.10;;;22.40;76.90;;;;;;5025500;28;21105;-75
2023/08/01 02:16:01;;;;;;;0.10;0.10;;;22.30;76.90;;;;;;5024238;28;20053;-75
2023/08/01 02:18:27;;;;;;;0.10;0.10;;;22.40;76.90;;;;;;5024926;28;20045;-75
2023/08/01 02:20:52;;;;;;;0.38;0.38;;;22.40;76.90;;;;;;5008928;28;20050;-75
2023/08/01 02:23:18;;;;;;;0.20;0.20;;;22.30;77.10;;;;;;5055548;28;20079;-75
2023/08/01 02:25:44;;;;;;;0.10;0.10;;;22.30;77.10;;;;;;5025585;28;20127;-75
2023/08/01 02:28:09;;;;;;;0.20;0.20;;;22.30;77.00;;;;;;5026529;28;20046;-75
2023/08/01 02:30:35;;;;;;;0.20;0.20;;;22.30;76.90;;;;;;5010537;28;20041;-75
2023/08/01 02:33:01;;;;;;;0.20;0.10;;;22.30;76.80;;;;;;5025915;28;20048;-75
2023/08/01 02:35:28;;;;;;;0.20;0.10;;;22.30;76.90;;;;;;5025534;28;20045;-75
2023/08/01 02:37:53;;;;;;;0.20;0.20;;;22.30;76.80;;;;;;5009543;28;20041;-76
2023/08/01 02:40:19;;;;;;;0.20;0.20;;;22.30;76.80;;;;;;5007751;28;20068;-76
2023/08/01 02:42:45;;;;;;;0.20;0.20;;;22.30;76.70;;;;;;5026102;28;20041;-76
2023/08/01 02:45:10;;;;;;;0.45;0.13;;;22.30;76.70;;;;;;5024487;28;20644;-75
2023/08/01 02:47:36;;;;;;;0.17;0.10;;;22.30;76.80;;;;;;5025934;28;20045;-75
2023/08/01 02:50:01;;;;;;;0.13;0.13;;;22.30;76.80;;;;;;5025353;28;20049;-75
2023/08/01 02:52:27;;;;;;;0.10;0.10;;;22.30;76.70;;;;;;5026144;28;20077;-75
2023/08/01 02:54:53;;;;;;;0.10;0.10;;;22.30;76.60;;;;;;5025008;28;20037;-76
2023/08/01 02:57:18;;;;;;;0.20;0.20;;;22.30;76.70;;;;;;5024298;28;20095;-75
2023/08/01 02:59:44;;;;;;;0.20;0.17;;;22.30;76.60;;;;;;5026115;28;20499;-75
2023/08/01 03:02:10;;;;;;;0.20;0.20;;;22.30;76.50;;;;;;5025908;28;20041;-75
2023/08/01 03:04:35;;;;;;;0.20;0.20;;;22.30;76.60;;;;;;5026158;28;20045;-75
2023/08/01 03:07:01;;;;;;;0.10;0.10;;;22.30;76.50;;;;;;5022971;28;20571;-75
2023/08/01 03:09:26;;;;;;;0.30;0.25;;;22.30;76.40;;;;;;5008355;28;20053;-75
2023/08/01 03:11:52;;;;;;;0.20;0.20;;;22.30;76.40;;;;;;5026086;28;20052;-75
2023/08/01 03:14:18;;;;;;;0.10;0.10;;;22.30;76.40;;;;;;5026705;28;20041;-75
2023/08/01 03:16:43;;;;;;;0.10;0.10;;;22.30;76.40;;;;;;5024888;28;20158;-75
2023/08/01 03:19:09;;;;;;;0.13;0.13;;;22.30;76.30;;;;;;5024880;28;20033;-75
2023/08/01 03:21:34;;;;;;;0.10;0.10;;;22.30;76.30;;;;;;5024132;28;20056;-75
2023/08/01 03:24:00;;;;;;;0.20;0.20;;;22.30;76.30;;;;;;5021700;28;20058;-75
2023/08/01 03:26:28;;;;;;;0.30;0.30;;;22.30;76.30;;;;;;5024812;28;20063;-75
2023/08/01 03:28:55;;;;;;;0.30;0.30;;;22.30;76.30;;;;;;5026074;28;20570;-75
2023/08/01 03:31:21;;;;;;;0.20;0.17;;;22.30;76.20;;;;;;5024155;28;20471;-75
2023/08/01 03:33:46;;;;;;;0.10;0.10;;;22.30;76.20;;;;;;5024319;28;20288;-75
2023/08/01 03:36:12;;;;;;;0.20;0.20;;;22.30;76.20;;;;;;5022340;28;20052;-75
2023/08/01 03:38:38;;;;;;;0.10;0.10;;;22.30;76.20;;;;;;5025086;28;20048;-75
2023/08/01 03:41:04;;;;;;;0.30;0.22;;;22.30;76.20;;;;;;5026456;28;20045;-75
2023/08/01 03:43:29;;;;;;;0.20;0.20;;;22.30;76.10;;;;;;5024959;28;20609;-75
2023/08/01 03:45:55;;;;;;;0.70;0.20;;;22.30;76.10;;;;;;5023244;28;20463;-75
2023/08/01 03:48:20;;;;;;;0.30;0.30;;;22.30;76.10;;;;;;5023600;28;20041;-75
2023/08/01 03:50:46;;;;;;;0.20;0.20;;;22.30;76.20;;;;;;5022779;28;20558;-75
2023/08/01 03:53:11;;;;;;;0.25;0.20;;;22.30;76.10;;;;;;5026277;28;20045;-75
2023/08/01 03:55:37;;;;;;;0.17;0.15;;;22.30;76.10;;;;;;5024164;28;20049;-75
2023/08/01 03:58:03;;;;;;;0.20;0.20;;;22.30;76.10;;;;;;5023435;28;20034;-75
2023/08/01 04:00:32;;;;;;;0.20;0.20;;;22.30;76.00;;;;;;5004425;28;20462;-75
2023/08/01 04:02:58;;;;;;;0.20;0.20;;;22.30;75.90;;;;;;5024841;28;20609;-75
2023/08/01 04:05:24;;;;;;;0.20;0.20;;;22.30;75.90;;;;;;5024771;28;20115;-75
2023/08/01 04:07:49;;;;;;;0.10;0.10;;;22.20;75.80;;;;;;5024696;28;20045;-75
2023/08/01 04:10:15;;;;;;;0.20;0.20;;;22.20;75.80;;;;;;5006957;28;20046;-75
2023/08/01 04:12:42;;;;;;;0.20;0.20;;;22.20;75.80;;;;;;5007820;28;20033;-76
2023/08/01 04:15:08;;;;;;;0.20;0.10;;;22.20;75.70;;;;;;5007541;28;20110;-75
2023/08/01 04:17:34;;;;;;;0.20;0.20;;;22.20;75.70;;;;;;5023539;28;20042;-75
2023/08/01 04:19:59;;;;;;;0.20;0.20;;;22.20;75.70;;;;;;5021251;28;20088;-75
2023/08/01 04:22:25;;;;;;;0.20;0.20;;;22.20;75.80;;;;;;5023522;28;20116;-75
2023/08/01 04:24:50;;;;;;;0.43;0.30;;;22.20;75.80;;;;;;5023308;28;20033;-75
2023/08/01 04:27:16;;;;;;;0.20;0.20;;;22.20;75.80;;;;;;5023618;28;20041;-75
2023/08/01 04:29:42;;;;;;;0.20;0.20;;;22.20;75.70;;;;;;5024617;28;20495;-75
2023/08/01 04:32:07;;;;;;;0.20;0.20;;;22.20;75.60;;;;;;5054810;28;20033;-75
2023/08/01 04:34:33;;;;;;;0.28;0.28;;;22.30;75.80;;;;;;5021447;28;20029;-75
2023/08/01 04:36:59;;;;;;;0.40;0.40;;;22.20;75.50;;;;;;5024353;28;20068;-75
2023/08/01 04:39:24;;;;;;;0.38;0.38;;;22.20;75.60;;;;;;5022725;28;20034;-75
2023/08/01 04:41:50;;;;;;;0.47;0.47;;;22.20;75.60;;;;;;5022530;28;20062;-75
2023/08/01 04:44:15;;;;;;;0.20;0.15;;;22.20;75.50;;;;;;5022959;28;20041;-75
2023/08/01 04:46:41;;;;;;;0.47;0.47;;;22.20;75.50;;;;;;5005799;28;20471;-75
2023/08/01 04:49:07;;;;;;;0.38;0.30;;;22.20;75.50;;;;;;5024232;28;20547;-75
2023/08/01 04:51:32;;;;;;;0.30;0.20;;;22.20;75.40;;;;;;5003876;28;20234;-75
2023/08/01 04:53:58;;;;;;;0.30;0.30;;;22.20;75.50;;;;;;5022723;28;20061;-75
2023/08/01 04:56:24;;;;;;;0.30;0.30;;;22.20;75.50;;;;;;5024112;28;20487;-75
2023/08/01 04:58:49;;;;;;;0.70;0.45;;;22.20;75.40;;;;;;5024230;28;20036;-75
2023/08/01 05:01:15;;;;;;;0.20;0.20;;;22.20;75.30;;;;;;5023393;28;20044;-75
2023/08/01 05:03:40;;;;;;;0.30;0.30;;;22.20;76.10;;;;;;5023668;28;20492;-75
2023/08/01 05:06:06;;;;;;;0.30;0.30;;;22.20;75.30;;;;;;5023186;28;20037;-75
2023/08/01 05:08:31;;;;;;;0.30;0.20;;;22.20;75.10;;;;;;5023337;28;20045;-75
2023/08/01 05:10:57;;;;;;;0.20;0.17;;;22.20;75.20;;;;;;5023474;28;20044;-75
2023/08/01 05:13:23;;;;;;;0.20;0.20;;;22.20;75.20;;;;;;5024227;28;20487;-75
2023/08/01 05:15:48;;;;;;;0.13;0.10;;;22.20;75.30;;;;;;5023354;28;20045;-74
2023/08/01 05:18:18;;;;;;;0.63;0.20;;;22.20;75.10;;;;;;5022203;28;20076;-75
2023/08/01 05:20:44;;;;;;;0.60;0.60;;;22.20;75.20;;;;;;5024309;28;20068;-75
2023/08/01 05:23:10;;;;;;;0.20;0.20;;;22.20;75.10;;;;;;5026057;28;20053;-75
2023/08/01 05:25:35;;;;;;;0.20;0.20;;;22.20;75.30;;;;;;5024098;28;20112;-75
2023/08/01 05:28:01;;;;;;;0.20;0.20;;;22.20;75.10;;;;;;5021814;28;20088;-75
2023/08/01 05:30:26;;;;;;;0.20;0.20;;;22.20;75.10;;;;;;5006052;28;20083;-75
2023/08/01 05:32:53;;;;;;;0.40;0.40;;;22.20;75.10;;;;;;5022596;28;20403;-75
2023/08/01 05:35:19;;;;;;;1.27;0.30;;;22.20;75.10;;;;;;5055426;28;20061;-75
2023/08/01 05:37:44;;;;;;;0.20;0.20;;;22.20;75.00;;;;;;5020855;28;20072;-76
2023/08/01 05:40:10;;;;;;;0.30;0.30;;;22.20;75.20;;;;;;5022538;28;20037;-74
2023/08/01 05:42:36;;;;;;;0.85;0.80;;;22.20;74.50;;;;;;5025024;28;20048;-74
2023/08/01 05:45:03;;;;;;;1.40;1.08;;;21.90;72.20;;;;;;5026833;28;20454;-75
2023/08/01 05:47:29;;;;;;;3.28;1.80;;;21.60;73.30;;;;;;5027943;28;20053;-74
2023/08/01 05:49:55;;;;;;;2.45;1.50;;;21.30;73.70;;;;;;5008987;28;20495;-74
2023/08/01 05:52:20;;;;;;;2.45;1.40;;;21.10;74.50;;;;;;5027238;28;20041;-74
2023/08/01 05:54:46;;;;;;;2.63;1.83;;;21.10;74.10;;;;;;5027067;28;20064;-75
2023/08/01 05:57:11;;;;;;;3.90;1.70;;;20.90;74.90;;;;;;5027618;28;20120;-74
2023/08/01 05:59:37;;;;;;;1.90;1.70;;;20.90;75.40;;;;;;5025403;28;20045;-75
2023/08/01 06:02:03;;;;;;;1.98;1.50;;;21.10;75.20;;;;;;5027140;28;20575;-75
2023/08/01 06:04:28;;;;;;;1.63;1.40;;;21.20;74.70;;;;;;5008962;28;20068;-75
2023/08/01 06:06:54;;;;;;;2.08;1.83;;;21.40;74.30;;;;;;5023260;28;20095;-75
2023/08/01 06:09:19;;;;;;;4.00;1.55;;;21.40;73.80;;;;;;5026272;28;20045;-75
2023/08/01 06:11:45;;;;;;;2.88;1.20;;;21.60;73.40;;;;;;5025848;28;20042;-74
2023/08/01 06:14:11;;;;;;;3.45;1.40;;;21.70;73.20;;;;;;5034045;28;20049;-74
2023/08/01 06:16:36;;;;;;;1.23;1.20;;;21.70;73.90;;;;;;5006482;28;20046;-74
2023/08/01 06:19:02;;;;;;;1.85;1.50;;;21.70;73.00;;;;;;5027043;28;20032;-75
2023/08/01 06:21:28;;;;;;;2.75;1.50;;;21.70;73.20;;;;;;5024639;28;20518;-75
2023/08/01 06:23:53;;;;;;;1.98;1.55;;;21.80;73.30;;;;;;5027256;28;20059;-74
2023/08/01 06:26:19;;;;;;;2.05;1.35;;;21.70;73.00;;;;;;5005506;28;20042;-74
2023/08/01 06:28:44;;;;;;;2.67;1.70;;;21.80;73.00;;;;;;5025526;28;20049;-75
2023/08/01 06:31:10;;;;;;;1.48;1.38;;;21.80;72.90;;;;;;5008675;28;20419;-74
2023/08/01 06:33:35;;;;;;;1.40;1.30;;;21.80;73.00;;;;;;5025078;28;20044;-75
2023/08/01 06:36:01;;;;;;;2.38;1.30;;;21.80;72.80;;;;;;5027020;28;20526;-75
2023/08/01 06:38:27;;;;;;;1.80;1.50;;;21.80;72.90;;;;;;5027670;28;20041;-74
2023/08/01 06:40:52;;;;;;;1.30;1.10;;;21.80;73.00;;;;;;5022377;28;20511;-74
2023/08/01 06:43:18;;;;;;;1.95;1.40;;;21.80;73.10;;;;;;5023000;28;20099;-74
2023/08/01 06:45:43;;;;;;;1.63;1.52;;;21.80;73.20;;;;;;5024754;28;20049;-75
2023/08/01 06:48:09;;;;;;;2.90;1.42;;;21.90;73.10;;;;;;5026575;28;20041;-74
2023/08/01 06:50:35;;;;;;;1.88;1.40;;;21.80;73.00;;;;;;5026430;28;20451;-74
2023/08/01 06:53:01;;;;;;;1.48;1.38;;;21.80;73.00;;;;;;5026236;28;20111;-74
2023/08/01 06:55:26;;;;;;;1.60;1.50;;;21.80;73.00;;;;;;5021834;28;20716;-74
2023/08/01 06:57:52;;;;;;;2.83;1.30;;;21.80;73.10;;;;;;5026725;28;20029;-74
2023/08/01 07:00:18;;;;;;;1.67;1.35;;;21.80;73.00;;;;;;5006393;28;20042;-74
2023/08/01 07:02:43;;;;;;;1.85;1.75;;;21.80;73.10;;;;;;5009976;28;20144;-75
2023/08/01 07:05:09;;;;;;;1.52;1.42;;;21.80;73.10;;;;;;5010517;28;20056;-75
2023/08/01 07:07:34;;;;;;;1.50;1.40;;;21.80;73.20;;;;;;5023285;28;20052;-75
2023/08/01 07:10:00;;;;;;;1.73;1.30;;;21.80;73.20;;;;;;5021120;28;20057;-75
2023/08/01 07:12:25;;;;;;;2.05;1.38;;;21.80;73.30;;;;;;5026358;28;20435;-74
2023/08/01 07:14:51;;;;;;;2.42;2.10;;;21.80;73.50;;;;;;5003819;28;20045;-74
2023/08/01 07:17:17;;;;;;;2.30;2.10;;;21.50;74.70;;;;;;5022547;28;20092;-75
2023/08/01 07:19:42;;;;;;;3.13;2.17;;;21.20;75.30;;;;;;5022083;28;20411;-73
2023/08/01 07:22:08;;;;;;;2.67;1.80;;;20.80;76.40;;;;;;5026314;28;20053;-74
2023/08/01 07:24:34;;;;;;;4.97;2.28;;;20.60;77.00;;;;;;5023332;28;20049;-76
2023/08/01 07:27:00;;;;;;;1.77;1.60;;;20.60;77.90;;;;;;5023857;28;20053;-75
2023/08/01 07:29:25;;;;;;;2.55;2.20;;;20.60;77.60;;;;;;5025658;28;20567;-73
2023/08/01 07:31:51;;;;;;;3.45;2.13;;;20.60;77.60;;;;;;5024461;28;20407;-75
2023/08/01 07:34:16;;;;;;;2.50;2.20;;;20.50;77.50;;;;;;5022349;28;20034;-74
2023/08/01 07:36:42;;;;;;;3.25;1.90;;;20.50;77.20;;;;;;5023406;28;20099;-74
2023/08/01 07:39:07;;;;;;;3.30;2.15;;;20.40;77.10;;;;;;5024338;28;20068;-74
2023/08/01 07:41:34;;;;;;;2.55;2.00;;;20.30;77.60;;;;;;5026181;28;20052;-74
2023/08/01 07:44:02;;;;;;;2.42;2.22;;;20.30;78.70;;;;;;5022140;28;20038;-76
2023/08/01 07:46:27;;;;;;;2.03;1.88;;;20.70;76.70;;;;;;5004554;28;20057;-73
2023/08/01 07:48:54;;;;;;;4.07;2.08;;;20.70;76.40;;;;;;5026072;28;20498;-73
2023/08/01 07:51:19;;;;;;;3.50;2.00;;;20.80;76.10;;;;;;5005231;28;20049;-74
2023/08/01 07:53:45;;;;;;;2.85;2.25;;;20.90;75.60;;;;;;5005753;28;20560;-73
2023/08/01 07:56:10;;;;;;;2.10;1.90;;;20.90;75.50;;;;;;5025990;28;20030;-73
2023/08/01 07:58:36;;;;;;;3.20;1.85;;;20.90;75.70;;;;;;5023112;28;20037;-73
2023/08/01 08:01:08;;;;;;;1.92;1.75;;;21.10;75.40;;;;;;5022169;28;20439;-73
2023/08/01 08:03:33;;;;;;;2.22;2.03;;;21.00;75.40;;;;;;5023503;28;20038;-74
2023/08/01 08:05:59;;;;;;;2.38;2.17;;;21.00;75.20;;;;;;5019148;28;20057;-74
2023/08/01 08:08:24;;;;;;;4.63;2.65;;;21.10;75.20;;;;;;5025432;28;20048;-74
2023/08/01 08:10:50;;;;;;;2.80;2.00;;;21.10;75.40;;;;;;5006202;28;20049;-77
2023/08/01 08:13:16;;;;;;;4.18;2.05;;;21.10;75.30;;;;;;5004010;28;20327;-76
2023/08/01 08:15:41;;;;;;;4.60;2.30;;;21.20;75.40;;;;;;5021998;28;21723;-74
2023/08/01 08:18:07;;;;;;;2.55;2.15;;;21.10;75.60;;;;;;5005981;28;20048;-74
2023/08/01 08:20:42;;;;;;;3.03;2.28;;;21.10;76.30;;;;;;5022465;28;20499;-74
2023/08/01 08:23:08;;;;;;;2.80;2.40;;;21.10;75.30;;;;;;5023578;28;20084;-74
2023/08/01 08:25:33;;;;;;;3.47;2.45;;;21.00;75.60;;;;;;5022073;28;20462;-74
2023/08/01 08:27:59;;;;;;;2.38;2.05;;;21.00;75.50;;;;;;4984144;28;20503;-75
2023/08/01 08:30:24;;;;;;;4.53;2.28;;;21.10;75.00;;;;;;5020449;28;20407;-75
2023/08/01 08:32:50;;;;;;;4.25;1.92;;;21.00;75.00;;;;;;5022893;28;20041;-76
2023/08/01 08:35:16;;;;;;;2.03;1.80;;;21.00;75.10;;;;;;5024693;28;20118;-75
2023/08/01 08:37:41;;;;;;;3.53;2.20;;;21.10;74.70;;;;;;5024258;28;21120;-75
2023/08/01 08:40:08;;;;;;;3.17;2.15;;;21.10;74.50;;;;;;5021513;28;20045;-75
2023/08/01 08:42:34;;;;;;;3.75;2.28;;;21.00;74.40;;;;;;5005708;28;20042;-74
2023/08/01 08:44:59;;;;;;;3.67;2.47;;;21.10;74.40;;;;;;5021797;28;20037;-74
2023/08/01 08:47:25;;;;;;;4.45;2.40;;;21.00;74.70;;;;;;5024498;28;20048;-75
2023/08/01 08:49:51;;;;;;;2.60;2.40;;;20.80;75.00;;;;;;5022907;28;20051;-74
2023/08/01 08:52:17;;;;;;;3.90;2.67;;;20.80;75.00;;;;;;5006120;28;20545;-74
2023/08/01 08:54:42;;;;;;;4.82;2.72;;;20.70;75.30;;;;;;5022414;28;20061;-74
2023/08/01 08:57:08;;;;;;;3.38;1.90;;;20.60;75.40;;;;;;5024195;28;20044;-74
2023/08/01 08:59:33;;;;;;;4.55;2.03;;;20.60;75.80;;;;;;4989533;28;20045;-74
2023/08/01 09:02:01;;;;;;;3.30;2.30;;;20.50;76.00;;;;;;5038509;28;20470;-74
2023/08/01 09:04:27;;;;;;;5.40;2.70;;;20.60;76.10;;;;;;5017957;28;20453;-75
2023/08/01 09:06:55;;;;;;;4.07;2.38;;;20.60;75.50;;;;;;5007594;28;20423;-75
2023/08/01 09:09:22;;;;;;;3.33;2.67;;;20.40;75.80;;;;;;5023735;28;20037;-76
2023/08/01 09:11:49;;;;;;;2.63;2.40;;;20.60;76.30;;;;;;5021536;28;20041;-76
2023/08/01 09:14:15;;;;;;;4.45;2.72;;;20.70;76.30;;;;;;5020089;28;20038;-75
2023/08/01 09:16:41;;;;;;;2.90;2.40;;;20.70;76.30;;;;;;5006711;28;20541;-74
2023/08/01 09:19:07;;;;;;;3.10;2.40;;;20.70;76.10;;;;;;5004477;28;20164;-73
2023/08/01 09:21:33;;;;;;;3.72;1.90;;;20.70;76.40;;;;;;5019687;28;20124;-73
2023/08/01 09:24:10;;;;;;;2.20;2.03;;;20.90;76.10;;;;;;5033890;28;20054;-73
2023/08/01 09:26:36;;;;;;;2.72;2.50;;;21.00;75.50;;;;;;5021378;28;20099;-74
2023/08/01 09:29:01;;;;;;;2.53;2.30;;;21.10;75.00;;;;;;5055396;28;20495;-75
2023/08/01 09:31:28;;;;;;;2.22;2.03;;;21.10;74.50;;;;;;5023247;28;20046;-75
2023/08/01 09:33:54;;;;;;;3.53;2.53;;;21.10;75.00;;;;;;4989176;28;20104;-75
2023/08/01 09:36:23;;;;;;;3.38;1.90;;;21.10;74.60;;;;;;5004609;28;20049;-75
2023/08/01 09:38:48;;;;;;;2.35;2.10;;;21.10;75.00;;;;;;5020508;28;20509;-75
2023/08/01 09:41:17;;;;;;;1.80;1.70;;;21.10;75.30;;;;;;5040161;28;20128;-75
2023/08/01 09:43:48;;;;;;;2.90;2.00;;;21.10;75.30;;;;;;5018790;28;20045;-76
2023/08/01 09:46:14;;;;;;;3.80;2.58;;;21.10;75.40;;;;;;5007217;28;20037;-75
2023/08/01 09:48:39;;;;;;;2.85;2.20;;;21.10;75.20;;;;;;5022379;28;20107;-75
2023/08/01 09:51:09;;;;;;;3.95;2.40;;;21.00;75.40;;;;;;5007415;28;20117;-75
2023/08/01 09:53:35;;;;;;;2.92;2.08;;;21.00;75.30;;;;;;5000655;28;20407;-75
2023/08/01 09:56:04;;;;;;;2.80;2.17;;;21.10;75.50;;;;;;5005429;28;20038;-75
2023/08/01 09:58:33;;;;;;;2.47;2.28;;;21.10;75.60;;;;;;4989412;28;20049;-75
2023/08/01 10:01:00;;;;;;;3.42;2.08;;;21.10;75.50;;;;;;5048951;28;20585;-74
2023/08/01 10:03:29;;;;;;;2.70;2.30;;;21.20;75.50;;;;;;5022616;28;20038;-74
2023/08/01 10:05:55;;;;;;;2.55;1.98;;;21.30;75.50;;;;;;5022752;28;20049;-74
2023/08/01 10:08:21;;;;;;;2.70;2.50;;;21.20;75.00;;;;;;5006859;28;20033;-74
2023/08/01 10:10:47;;;;;;;2.42;2.22;;;21.20;74.80;;;;;;5022317;28;20269;-75
2023/08/01 10:13:13;;;;;;;2.83;1.98;;;21.30;74.90;;;;;;5005967;28;20057;-74
2023/08/01 10:15:39;;;;;;;2.00;1.90;;;21.40;74.60;;;;;;5020292;28;20076;-74
2023/08/01 10:18:04;;;;;;;2.55;2.25;;;21.50;73.60;;;;;;5018977;28;20124;-75
2023/08/01 10:20:30;;;;;;;2.30;2.10;;;21.40;73.30;;;;;;5023903;28;20087;-74
2023/08/01 10:22:55;;;;;;;2.80;2.20;;;21.50;73.40;;;;;;5019944;28;20068;-74
2023/08/01 10:25:21;;;;;;;2.97;2.40;;;21.50;72.80;;;;;;5006185;28;20030;-73
2023/08/01 10:28:00;;;;;;;2.78;2.08;;;21.40;72.80;;;;;;5021434;28;20621;-74
2023/08/01 10:30:26;;;;;;;2.47;1.83;;;21.30;72.70;;;;;;5022218;28;20037;-74
2023/08/01 10:32:55;;;;;;;2.30;2.05;;;21.50;72.30;;;;;;5025844;28;20041;-74
2023/08/01 10:35:37;;;;;;;2.25;2.03;;;21.50;72.10;;;;;;5010270;28;20030;-73
2023/08/01 10:38:12;;;;;;;3.17;2.38;;;21.50;72.40;;;;;;5009738;28;20041;-74
2023/08/01 10:40:42;;;;;;;3.30;2.70;;;21.60;72.50;;;;;;5021020;28;20113;-75
2023/08/01 10:43:21;;;;;;;3.72;2.03;;;21.40;72.80;;;;;;5039366;28;20069;-74
2023/08/01 10:45:46;;;;;;;2.65;2.35;;;21.40;72.80;;;;;;5038756;28;20045;-74
2023/08/01 10:48:12;;;;;;;3.80;2.50;;;21.50;72.80;;;;;;5021113;28;20045;-73
2023/08/01 10:50:38;;;;;;;2.83;2.15;;;21.50;73.10;;;;;;5022693;28;20041;-73
2023/08/01 10:53:08;;;;;;;2.95;2.53;;;21.50;73.00;;;;;;5035513;28;20143;-73
2023/08/01 10:55:44;;;;;;;3.47;2.10;;;21.50;73.40;;;;;;5006677;28;20083;-73
2023/08/01 10:58:09;;;;;;;2.30;2.08;;;21.50;73.20;;;;;;5007680;28;20472;-72
2023/08/01 11:00:35;;;;;;;2.92;2.35;;;21.60;72.50;;;;;;5022587;28;20080;-74
2023/08/01 11:03:01;;;;;;;2.35;2.15;;;21.50;72.90;;;;;;5024415;28;20037;-73
2023/08/01 11:05:28;;;;;;;2.53;2.33;;;21.50;73.30;;;;;;5025897;28;20462;-72
2023/08/01 11:07:57;;;;;;;5.07;2.40;;;21.50;73.60;;;;;;5021444;28;20046;-72
2023/08/01 11:10:25;;;;;;;2.42;2.10;;;21.50;74.00;;;;;;4675154;28;9999869;-72
2023/08/01 11:12:50;;;;;;;3.97;2.22;;;21.40;74.50;;;;;;5006973;28;20091;-72
2023/08/01 11:15:16;;;;;;;2.42;2.00;;;21.50;74.10;;;;;;5026399;28;20049;-72
2023/08/01 11:17:43;;;;;;;2.22;1.88;;;21.50;73.90;;;;;;5025020;28;20037;-73
2023/08/01 11:20:10;;;;;;;4.22;2.40;;;21.50;73.80;;;;;;5010019;28;20057;-73
2023/08/01 11:22:49;;;;;;;2.67;2.40;;;21.50;73.60;;;;;;4676180;28;9999995;-72
2023/08/01 11:25:14;;;;;;;2.08;1.95;;;21.60;74.40;;;;;;5019035;28;20499;-72
2023/08/01 11:27:40;;;;;;;3.53;2.00;;;21.60;73.20;;;;;;5021876;28;20095;-72
2023/08/01 11:30:06;;;;;;;2.08;1.98;;;21.70;73.40;;;;;;5053234;28;20045;-72
2023/08/01 11:32:36;;;;;;;2.08;1.98;;;21.80;73.00;;;;;;5022202;28;20045;-72
2023/08/01 11:35:02;;;;;;;2.42;2.25;;;21.70;73.10;;;;;;5004798;28;20046;-72
2023/08/01 11:37:27;;;;;;;3.83;2.10;;;21.70;73.00;;;;;;5037293;28;20106;-71
2023/08/01 11:39:53;;;;;;;2.30;2.10;;;21.70;73.00;;;;;;5020977;28;20048;-71
2023/08/01 11:42:18;;;;;;;2.30;2.05;;;21.60;72.90;;;;;;5020506;28;20041;-72
2023/08/01 11:44:44;;;;;;;3.25;2.00;;;21.60;72.90;;;;;;5021579;28;20120;-72
2023/08/01 11:47:16;;;;;;;3.67;1.65;;;21.60;73.20;;;;;;5022353;28;20046;-73
2023/08/01 11:49:49;;;;;;;2.55;2.10;;;21.60;73.00;;;;;;5020270;28;20049;-73
2023/08/01 11:52:27;;;;;;;2.10;1.88;;;21.60;72.80;;;;;;5020631;28;20034;-72
2023/08/01 11:54:54;;;;;;;3.08;2.30;;;21.70;72.40;;;;;;5018787;28;20048;-72
2023/08/01 11:57:23;;;;;;;2.00;1.80;;;21.70;72.50;;;;;;5020393;28;20088;-72
2023/08/01 11:59:54;;;;;;;2.15;1.80;;;21.70;72.60;;;;;;5018957;28;20159;-72
2023/08/01 12:02:26;;;;;;;1.80;1.70;;;21.70;72.70;;;;;;5021143;28;20049;-72
2023/08/01 12:04:52;;;;;;;3.63;1.90;;;21.70;72.60;;;;;;5021101;28;20049;-72
2023/08/01 12:07:18;;;;;;;2.10;2.00;;;21.70;72.90;;;;;;5021846;28;20052;-73
2023/08/01 12:09:45;;;;;;;1.85;1.50;;;21.70;72.80;;;;;;5020762;28;20057;-73
2023/08/01 12:12:10;;;;;;;2.13;1.92;;;21.70;72.90;;;;;;5020119;28;20042;-72
2023/08/01 12:14:40;;;;;;;2.08;1.88;;;21.70;73.30;;;;;;5019391;28;20037;-72
2023/08/01 12:17:06;;;;;;;1.75;1.65;;;21.70;73.50;;;;;;5024001;28;20033;-72
2023/08/01 12:19:33;;;;;;;1.70;1.55;;;21.70;73.50;;;;;;5037275;28;20420;-72
2023/08/01 12:21:59;;;;;;;2.88;2.30;;;21.70;73.60;;;;;;5020738;28;20099;-72
2023/08/01 12:24:24;;;;;;;5.50;5.00;;;21.80;73.60;;;;;;5020909;28;20053;-72
2023/08/01 12:26:50;;;;;;;5.25;4.95;;;21.80;73.60;;;;;;5019080;28;20037;-72
2023/08/01 12:29:16;;;;;;;4.25;3.60;;;21.70;74.10;;;;;;5021321;28;20430;-72
2023/08/01 12:31:41;;;;;;;4.47;3.30;;;21.70;74.30;;;;;;5018319;28;21758;-73
2023/08/01 12:34:07;;;;;;;3.10;2.80;;;21.70;74.40;;;;;;5013174;28;20037;-71
2023/08/01 12:36:32;;;;;;;3.28;2.72;;;21.80;74.40;;;;;;5016952;28;20041;-71
2023/08/01 12:38:58;;;;;;;3.10;2.90;;;21.80;74.60;;;;;;5020971;28;20026;-72
2023/08/01 12:41:23;;;;;;;2.80;2.60;;;21.80;74.90;;;;;;5016205;28;20098;-72